Terminal Aerodrome Forecast
Issued by NWS

Home | Current Version | Previous Version | Text Only | Print | Product List | Glossary On
Versions: 1 2 3 4 5 6 7 8 9 10 11 12 13 14 15 16 17 18 19 20 21
841
FTUS43 KJKL 292329
TAFSME
TAF
KSME 292329Z 3000/3024 VRB03KT P6SM SCT200
     FM300600 00000KT 2SM BR SCT030
     FM300900 00000KT 1/2SM FG BKN002
     FM301300 VRB03KT P6SM SCT015
     FM301900 26006KT P6SM VCTS SCT035CB BKN130=

USA.gov is the U.S. government's official web portal to all federal, state and local government web resources and services.